SWA1105 KLAX-KSFO
Flight info
| Callsign | SWA1105 |
|---|---|
| Flight time | 0h 51m |
| Altitude | 36000 |
| Route | SUMMR2 STOKD SERFR SERFR4 |
| Aircraft | B737/M-SDE2E3FGHIRWXY/LB1 |
Departure
| Time | 2026-04-21 14:15 |
|---|---|
| Airport | Los Angeles International Airport (KLAX) |
Arrival
| Time | 2026-04-21 15:06 |
|---|---|
| Airport | San Francisco International Airport (KSFO) |
| Time | Latitude | Longitude | Altitude | Speed | Heading |
|---|---|---|---|---|---|
| 2026-04-21 14:02 | 33.94714 | -118.40011 | 92 ft | 0 kts | 358° |
| 2026-04-21 14:03 | 33.94768 | -118.40007 | 92 ft | 7 kts | 5° |
| 2026-04-21 14:03 | 33.94825 | -118.40015 | 93 ft | 9 kts | 332° |
| 2026-04-21 14:03 | 33.94841 | -118.40081 | 93 ft | 9 kts | 264° |
| 2026-04-21 14:03 | 33.94833 | -118.40151 | 92 ft | 8 kts | 259° |
| 2026-04-21 14:04 | 33.94826 | -118.40225 | 92 ft | 10 kts | 261° |
| 2026-04-21 14:04 | 33.94811 | -118.40316 | 92 ft | 13 kts | 259° |
| 2026-04-21 14:04 | 33.94796 | -118.40439 | 94 ft | 16 kts | 263° |
| 2026-04-21 14:04 | 33.94781 | -118.40583 | 92 ft | 18 kts | 264° |
| 2026-04-21 14:05 | 33.94768 | -118.40729 | 93 ft | 17 kts | 263° |
| 2026-04-21 14:05 | 33.94752 | -118.40870 | 92 ft | 17 kts | 262° |
| 2026-04-21 14:05 | 33.94739 | -118.41006 | 92 ft | 16 kts | 263° |
| 2026-04-21 14:05 | 33.94725 | -118.41136 | 93 ft | 15 kts | 257° |
| 2026-04-21 14:06 | 33.94690 | -118.41253 | 92 ft | 14 kts | 236° |
| 2026-04-21 14:06 | 33.94605 | -118.41271 | 92 ft | 13 kts | 173° |
| 2026-04-21 14:06 | 33.94516 | -118.41258 | 94 ft | 14 kts | 173° |
| 2026-04-21 14:06 | 33.94414 | -118.41243 | 92 ft | 16 kts | 173° |
| 2026-04-21 14:07 | 33.94301 | -118.41226 | 94 ft | 16 kts | 173° |
| 2026-04-21 14:07 | 33.94191 | -118.41209 | 93 ft | 16 kts | 173° |
| 2026-04-21 14:07 | 33.94086 | -118.41194 | 93 ft | 15 kts | 173° |
| 2026-04-21 14:07 | 33.93980 | -118.41179 | 92 ft | 16 kts | 174° |
| 2026-04-21 14:08 | 33.93873 | -118.41163 | 94 ft | 15 kts | 172° |
| 2026-04-21 14:08 | 33.93776 | -118.41130 | 93 ft | 14 kts | 130° |
| 2026-04-21 14:08 | 33.93774 | -118.41021 | 92 ft | 13 kts | 83° |
| 2026-04-21 14:08 | 33.93785 | -118.40913 | 92 ft | 13 kts | 82° |
| 2026-04-21 14:09 | 33.93797 | -118.40797 | 95 ft | 15 kts | 83° |
| 2026-04-21 14:09 | 33.93810 | -118.40666 | 96 ft | 17 kts | 83° |
| 2026-04-21 14:09 | 33.93825 | -118.40519 | 94 ft | 19 kts | 83° |
| 2026-04-21 14:09 | 33.93842 | -118.40358 | 95 ft | 20 kts | 83° |
| 2026-04-21 14:10 | 33.93858 | -118.40196 | 95 ft | 19 kts | 83° |
| 2026-04-21 14:10 | 33.93874 | -118.40040 | 95 ft | 19 kts | 83° |
| 2026-04-21 14:10 | 33.93890 | -118.39887 | 95 ft | 18 kts | 83° |
| 2026-04-21 14:10 | 33.93906 | -118.39727 | 94 ft | 20 kts | 83° |
| 2026-04-21 14:11 | 33.93923 | -118.39555 | 94 ft | 21 kts | 82° |
| 2026-04-21 14:11 | 33.93942 | -118.39378 | 95 ft | 22 kts | 83° |
| 2026-04-21 14:11 | 33.93961 | -118.39191 | 92 ft | 23 kts | 82° |
| 2026-04-21 14:11 | 33.93980 | -118.39001 | 93 ft | 23 kts | 83° |
| 2026-04-21 14:12 | 33.94000 | -118.38810 | 93 ft | 23 kts | 83° |
| 2026-04-21 14:12 | 33.94019 | -118.38625 | 96 ft | 22 kts | 83° |
| 2026-04-21 14:12 | 33.94037 | -118.38445 | 97 ft | 21 kts | 83° |
| 2026-04-21 14:12 | 33.94055 | -118.38269 | 96 ft | 21 kts | 83° |
| 2026-04-21 14:13 | 33.94072 | -118.38101 | 92 ft | 19 kts | 83° |
| 2026-04-21 14:13 | 33.94056 | -118.38008 | 93 ft | 10 kts | 152° |
| 2026-04-21 14:13 | 33.93996 | -118.37998 | 92 ft | 7 kts | 191° |
| 2026-04-21 14:13 | 33.93984 | -118.38030 | 92 ft | 0 kts | 263° |
| 2026-04-21 14:14 | 33.93976 | -118.38104 | 93 ft | 34 kts | 263° |
| 2026-04-21 14:14 | 33.93913 | -118.38716 | 95 ft | 113 kts | 263° |
| 2026-04-21 14:14 | 33.93789 | -118.39914 | 174 ft | 168 kts | 262° |
| 2026-04-21 14:15 | 33.93634 | -118.41327 | 979 ft | 167 kts | 261° |
| 2026-04-21 14:15 | 33.93465 | -118.42712 | 1837 ft | 169 kts | 261° |
| 2026-04-21 14:15 | 33.93303 | -118.44189 | 2300 ft | 190 kts | 260° |
| 2026-04-21 14:15 | 33.93111 | -118.45869 | 2645 ft | 212 kts | 261° |
| 2026-04-21 14:16 | 33.92927 | -118.47742 | 2891 ft | 234 kts | 262° |
| 2026-04-21 14:16 | 33.92772 | -118.49736 | 3382 ft | 250 kts | 264° |
| 2026-04-21 14:16 | 33.92638 | -118.51908 | 3951 ft | 261 kts | 264° |
| 2026-04-21 14:16 | 33.92475 | -118.54068 | 5004 ft | 260 kts | 262° |
| 2026-04-21 14:17 | 33.92291 | -118.56203 | 5964 ft | 260 kts | 262° |
| 2026-04-21 14:17 | 33.92091 | -118.58368 | 7025 ft | 258 kts | 261° |
| 2026-04-21 14:17 | 33.91911 | -118.60519 | 8037 ft | 261 kts | 261° |
| 2026-04-21 14:17 | 33.91745 | -118.62738 | 8863 ft | 270 kts | 262° |
| 2026-04-21 14:18 | 33.91737 | -118.65012 | 9875 ft | 273 kts | 266° |
| 2026-04-21 14:18 | 33.91770 | -118.67320 | 10646 ft | 283 kts | 264° |
| 2026-04-21 14:18 | 33.91775 | -118.69798 | 10998 ft | 307 kts | 265° |
| 2026-04-21 14:18 | 33.91772 | -118.72446 | 11539 ft | 321 kts | 264° |
| 2026-04-21 14:19 | 33.91753 | -118.75155 | 11909 ft | 324 kts | 264° |
| 2026-04-21 14:19 | 33.91734 | -118.77869 | 12028 ft | 324 kts | 264° |
| 2026-04-21 14:19 | 33.91705 | -118.80590 | 12042 ft | 325 kts | 264° |
| 2026-04-21 14:19 | 33.91683 | -118.83312 | 12051 ft | 325 kts | 264° |
| 2026-04-21 14:20 | 33.91739 | -118.86060 | 12458 ft | 332 kts | 266° |
| 2026-04-21 14:20 | 33.91836 | -118.88783 | 13498 ft | 331 kts | 266° |
| 2026-04-21 14:20 | 33.91924 | -118.91584 | 14278 ft | 337 kts | 265° |
| 2026-04-21 14:20 | 33.92013 | -118.94410 | 15177 ft | 338 kts | 265° |
| 2026-04-21 14:21 | 33.92103 | -118.97246 | 16122 ft | 339 kts | 265° |
| 2026-04-21 14:21 | 33.92219 | -119.00096 | 16971 ft | 346 kts | 270° |
| 2026-04-21 14:21 | 33.92885 | -119.02955 | 17747 ft | 366 kts | 288° |
| 2026-04-21 14:21 | 33.94171 | -119.05658 | 18552 ft | 375 kts | 294° |
| 2026-04-21 14:22 | 33.95107 | -119.07421 | 18997 ft | 379 kts | 295° |
| 2026-04-21 14:22 | 33.96549 | -119.10094 | 19683 ft | 383 kts | 295° |
| 2026-04-21 14:22 | 33.97987 | -119.12808 | 20388 ft | 386 kts | 294° |
| 2026-04-21 14:22 | 33.99416 | -119.15558 | 21094 ft | 389 kts | 294° |
| 2026-04-21 14:23 | 34.00915 | -119.18296 | 21760 ft | 399 kts | 302° |
| 2026-04-21 14:23 | 34.03035 | -119.20580 | 22407 ft | 418 kts | 316° |
| 2026-04-21 14:23 | 34.05432 | -119.22620 | 23023 ft | 424 kts | 317° |
| 2026-04-21 14:23 | 34.07866 | -119.24656 | 23653 ft | 428 kts | 317° |
| 2026-04-21 14:24 | 34.10315 | -119.26705 | 24295 ft | 429 kts | 317° |
| 2026-04-21 14:24 | 34.12763 | -119.28773 | 24850 ft | 431 kts | 317° |
| 2026-04-21 14:24 | 34.15223 | -119.30872 | 25378 ft | 435 kts | 317° |
| 2026-04-21 14:24 | 34.17697 | -119.32997 | 25887 ft | 438 kts | 317° |
| 2026-04-21 14:25 | 34.20193 | -119.35149 | 26404 ft | 441 kts | 317° |
| 2026-04-21 14:25 | 34.22703 | -119.37317 | 26866 ft | 446 kts | 317° |
| 2026-04-21 14:25 | 34.25213 | -119.39487 | 27283 ft | 451 kts | 317° |
| 2026-04-21 14:25 | 34.27770 | -119.41698 | 27777 ft | 453 kts | 317° |
| 2026-04-21 14:26 | 34.30344 | -119.43923 | 28280 ft | 456 kts | 317° |
| 2026-04-21 14:26 | 34.32931 | -119.46161 | 28741 ft | 458 kts | 317° |
| 2026-04-21 14:26 | 34.35530 | -119.48411 | 29173 ft | 462 kts | 317° |
| 2026-04-21 14:26 | 34.38154 | -119.50686 | 29597 ft | 465 kts | 317° |
| 2026-04-21 14:27 | 34.40785 | -119.52974 | 30023 ft | 467 kts | 316° |
| 2026-04-21 14:27 | 34.43245 | -119.55495 | 30548 ft | 458 kts | 308° |
| 2026-04-21 14:27 | 34.45475 | -119.58182 | 31324 ft | 447 kts | 306° |
| 2026-04-21 14:27 | 34.47600 | -119.60880 | 32169 ft | 436 kts | 305° |
| 2026-04-21 14:28 | 34.49665 | -119.63530 | 32945 ft | 428 kts | 305° |
| 2026-04-21 14:28 | 34.51701 | -119.66128 | 33565 ft | 424 kts | 305° |
| 2026-04-21 14:28 | 34.53771 | -119.68704 | 34025 ft | 424 kts | 305° |
| 2026-04-21 14:28 | 34.55797 | -119.71236 | 34463 ft | 421 kts | 305° |
| 2026-04-21 14:29 | 34.57832 | -119.73775 | 34935 ft | 418 kts | 305° |
| 2026-04-21 14:29 | 34.59857 | -119.76294 | 35395 ft | 415 kts | 305° |
| 2026-04-21 14:29 | 34.61865 | -119.78785 | 35735 ft | 413 kts | 305° |
| 2026-04-21 14:29 | 34.63843 | -119.81316 | 35994 ft | 410 kts | 304° |
| 2026-04-21 14:30 | 34.65834 | -119.83824 | 36014 ft | 415 kts | 305° |
| 2026-04-21 14:30 | 34.69875 | -119.88779 | 36030 ft | 410 kts | 305° |
| 2026-04-21 14:31 | 34.73896 | -119.93728 | 36019 ft | 412 kts | 305° |
| 2026-04-21 14:31 | 34.77913 | -119.98704 | 36019 ft | 413 kts | 305° |
| 2026-04-21 14:32 | 34.81941 | -120.03711 | 36018 ft | 414 kts | 304° |
| 2026-04-21 14:32 | 34.85970 | -120.08675 | 36041 ft | 416 kts | 305° |
| 2026-04-21 14:33 | 34.89997 | -120.13741 | 36043 ft | 415 kts | 303° |
| 2026-04-21 14:33 | 34.93974 | -120.18835 | 36063 ft | 415 kts | 304° |
| 2026-04-21 14:34 | 34.98059 | -120.23872 | 36036 ft | 420 kts | 304° |
| 2026-04-21 14:34 | 35.02171 | -120.28943 | 36050 ft | 421 kts | 304° |
| 2026-04-21 14:35 | 35.06246 | -120.34097 | 36037 ft | 422 kts | 304° |
| 2026-04-21 14:35 | 35.10387 | -120.39223 | 36042 ft | 427 kts | 307° |
| 2026-04-21 14:36 | 35.14798 | -120.44151 | 36047 ft | 432 kts | 308° |
| 2026-04-21 14:36 | 35.19266 | -120.49069 | 36028 ft | 432 kts | 308° |
| 2026-04-21 14:37 | 35.23700 | -120.54006 | 36047 ft | 430 kts | 307° |
| 2026-04-21 14:37 | 35.28083 | -120.58933 | 36038 ft | 431 kts | 307° |
| 2026-04-21 14:38 | 35.32506 | -120.63918 | 36028 ft | 432 kts | 307° |
| 2026-04-21 14:38 | 35.36931 | -120.68909 | 36027 ft | 433 kts | 307° |
| 2026-04-21 14:39 | 35.41371 | -120.73924 | 36025 ft | 434 kts | 308° |
| 2026-04-21 14:39 | 35.45783 | -120.78914 | 35999 ft | 434 kts | 308° |
| 2026-04-21 14:40 | 35.50302 | -120.83845 | 36028 ft | 438 kts | 312° |
| 2026-04-21 14:40 | 35.55199 | -120.88374 | 36032 ft | 441 kts | 314° |
| 2026-04-21 14:41 | 35.60160 | -120.92845 | 36013 ft | 443 kts | 314° |
| 2026-04-21 14:41 | 35.65096 | -120.97381 | 36035 ft | 444 kts | 313° |
| 2026-04-21 14:42 | 35.70040 | -121.01985 | 36010 ft | 446 kts | 313° |
| 2026-04-21 14:42 | 35.74989 | -121.06610 | 36016 ft | 447 kts | 313° |
| 2026-04-21 14:43 | 35.79915 | -121.11218 | 36013 ft | 447 kts | 313° |
| 2026-04-21 14:43 | 35.82396 | -121.13542 | 35822 ft | 450 kts | 313° |
| 2026-04-21 14:43 | 35.84903 | -121.15897 | 35234 ft | 453 kts | 313° |
| 2026-04-21 14:43 | 35.87407 | -121.18244 | 34595 ft | 453 kts | 313° |
| 2026-04-21 14:44 | 35.89915 | -121.20597 | 33951 ft | 453 kts | 313° |
| 2026-04-21 14:44 | 35.92410 | -121.22937 | 33442 ft | 449 kts | 313° |
| 2026-04-21 14:44 | 35.94889 | -121.25265 | 32945 ft | 446 kts | 312° |
| 2026-04-21 14:44 | 35.97349 | -121.27577 | 32430 ft | 443 kts | 312° |
| 2026-04-21 14:45 | 35.99789 | -121.29877 | 31933 ft | 440 kts | 312° |
| 2026-04-21 14:45 | 36.02216 | -121.32167 | 31451 ft | 437 kts | 312° |
| 2026-04-21 14:45 | 36.04631 | -121.34446 | 30999 ft | 437 kts | 311° |
| 2026-04-21 14:45 | 36.07097 | -121.36775 | 30557 ft | 458 kts | 314° |
| 2026-04-21 14:46 | 36.09760 | -121.39052 | 30060 ft | 479 kts | 317° |
| 2026-04-21 14:46 | 36.12587 | -121.41257 | 29465 ft | 481 kts | 319° |
| 2026-04-21 14:46 | 36.15444 | -121.43399 | 28893 ft | 478 kts | 320° |
| 2026-04-21 14:46 | 36.18284 | -121.45520 | 28372 ft | 473 kts | 319° |
| 2026-04-21 14:47 | 36.21090 | -121.47606 | 27862 ft | 468 kts | 319° |
| 2026-04-21 14:47 | 36.23842 | -121.49698 | 27365 ft | 463 kts | 318° |
| 2026-04-21 14:47 | 36.26559 | -121.51834 | 26834 ft | 460 kts | 317° |
| 2026-04-21 14:47 | 36.29252 | -121.53978 | 26349 ft | 460 kts | 317° |
| 2026-04-21 14:48 | 36.31951 | -121.56097 | 25831 ft | 457 kts | 318° |
| 2026-04-21 14:48 | 36.34637 | -121.58176 | 25339 ft | 454 kts | 318° |
| 2026-04-21 14:48 | 36.37300 | -121.60270 | 24845 ft | 452 kts | 317° |
| 2026-04-21 14:48 | 36.39958 | -121.62380 | 24341 ft | 453 kts | 317° |
| 2026-04-21 14:49 | 36.42623 | -121.64488 | 23836 ft | 455 kts | 317° |
| 2026-04-21 14:49 | 36.45304 | -121.66597 | 23251 ft | 457 kts | 318° |
| 2026-04-21 14:49 | 36.47951 | -121.68672 | 22691 ft | 455 kts | 318° |
| 2026-04-21 14:49 | 36.50615 | -121.70765 | 22151 ft | 448 kts | 319° |
| 2026-04-21 14:50 | 36.52388 | -121.72160 | 21771 ft | 444 kts | 319° |
| 2026-04-21 14:50 | 36.55805 | -121.74852 | 21082 ft | 434 kts | 319° |
| 2026-04-21 14:50 | 36.58330 | -121.76856 | 20616 ft | 427 kts | 319° |
| 2026-04-21 14:50 | 36.60822 | -121.78830 | 20116 ft | 421 kts | 320° |
| 2026-04-21 14:51 | 36.63275 | -121.80776 | 19686 ft | 415 kts | 321° |
| 2026-04-21 14:51 | 36.65690 | -121.82694 | 19205 ft | 410 kts | 321° |
| 2026-04-21 14:51 | 36.68077 | -121.84590 | 18719 ft | 404 kts | 322° |
| 2026-04-21 14:51 | 36.70438 | -121.86465 | 18242 ft | 399 kts | 322° |
| 2026-04-21 14:52 | 36.72762 | -121.88310 | 17732 ft | 393 kts | 322° |
| 2026-04-21 14:52 | 36.75196 | -121.89835 | 17257 ft | 395 kts | 340° |
| 2026-04-21 14:52 | 36.77827 | -121.90588 | 16859 ft | 393 kts | 345° |
| 2026-04-21 14:52 | 36.80505 | -121.91277 | 16356 ft | 393 kts | 345° |
| 2026-04-21 14:53 | 36.83176 | -121.91973 | 15880 ft | 391 kts | 345° |
| 2026-04-21 14:53 | 36.85841 | -121.92689 | 15405 ft | 390 kts | 345° |
| 2026-04-21 14:53 | 36.88483 | -121.93417 | 14942 ft | 387 kts | 344° |
| 2026-04-21 14:53 | 36.91094 | -121.94146 | 14471 ft | 382 kts | 344° |
| 2026-04-21 14:54 | 36.93665 | -121.94866 | 14006 ft | 377 kts | 344° |
| 2026-04-21 14:54 | 36.96209 | -121.95626 | 13600 ft | 370 kts | 341° |
| 2026-04-21 14:54 | 36.98649 | -121.96529 | 13251 ft | 362 kts | 339° |
| 2026-04-21 14:54 | 37.01014 | -121.97473 | 12796 ft | 352 kts | 338° |
| 2026-04-21 14:55 | 37.03321 | -121.98408 | 12318 ft | 344 kts | 338° |
| 2026-04-21 14:55 | 37.05549 | -121.99305 | 11876 ft | 337 kts | 338° |
| 2026-04-21 14:55 | 37.07797 | -122.00198 | 11401 ft | 332 kts | 338° |
| 2026-04-21 14:55 | 37.09954 | -122.01049 | 10950 ft | 325 kts | 338° |
| 2026-04-21 14:56 | 37.12089 | -122.01888 | 10509 ft | 318 kts | 338° |
| 2026-04-21 14:56 | 37.14174 | -122.02706 | 10198 ft | 306 kts | 338° |
| 2026-04-21 14:56 | 37.16182 | -122.03492 | 9906 ft | 303 kts | 338° |
| 2026-04-21 14:56 | 37.18197 | -122.04284 | 9499 ft | 302 kts | 338° |
| 2026-04-21 14:57 | 37.20204 | -122.05072 | 9109 ft | 301 kts | 338° |
| 2026-04-21 14:57 | 37.22187 | -122.05851 | 8682 ft | 296 kts | 338° |
| 2026-04-21 14:57 | 37.24129 | -122.06612 | 8344 ft | 290 kts | 338° |
| 2026-04-21 14:57 | 37.26025 | -122.07354 | 8107 ft | 285 kts | 338° |
| 2026-04-21 14:58 | 37.27880 | -122.08081 | 7993 ft | 278 kts | 338° |
| 2026-04-21 14:58 | 37.29758 | -122.08823 | 7535 ft | 287 kts | 338° |
| 2026-04-21 14:58 | 37.31660 | -122.09594 | 7266 ft | 284 kts | 338° |
| 2026-04-21 14:58 | 37.33554 | -122.10297 | 6844 ft | 285 kts | 341° |
| 2026-04-21 14:59 | 37.35465 | -122.10992 | 6563 ft | 285 kts | 340° |
| 2026-04-21 14:59 | 37.37367 | -122.11699 | 6117 ft | 285 kts | 340° |
| 2026-04-21 14:59 | 37.39258 | -122.12416 | 5580 ft | 281 kts | 339° |
| 2026-04-21 14:59 | 37.41098 | -122.13113 | 5258 ft | 270 kts | 340° |
| 2026-04-21 15:00 | 37.42869 | -122.13770 | 4900 ft | 261 kts | 339° |
| 2026-04-21 15:00 | 37.44576 | -122.14402 | 4639 ft | 248 kts | 340° |
| 2026-04-21 15:00 | 37.46160 | -122.14984 | 4456 ft | 229 kts | 340° |
| 2026-04-21 15:00 | 37.47664 | -122.15523 | 4100 ft | 220 kts | 340° |
| 2026-04-21 15:01 | 37.49089 | -122.16021 | 3802 ft | 210 kts | 340° |
| 2026-04-21 15:01 | 37.50442 | -122.16482 | 3651 ft | 195 kts | 341° |
| 2026-04-21 15:01 | 37.51754 | -122.16932 | 3418 ft | 196 kts | 340° |
| 2026-04-21 15:01 | 37.53034 | -122.17456 | 3237 ft | 189 kts | 330° |
| 2026-04-21 15:02 | 37.54072 | -122.18360 | 3028 ft | 176 kts | 304° |
| 2026-04-21 15:02 | 37.54700 | -122.19628 | 2764 ft | 169 kts | 293° |
| 2026-04-21 15:02 | 37.55254 | -122.20914 | 2515 ft | 164 kts | 291° |
| 2026-04-21 15:02 | 37.55747 | -122.22181 | 2316 ft | 157 kts | 288° |
| 2026-04-21 15:03 | 37.56205 | -122.23389 | 2099 ft | 152 kts | 288° |
| 2026-04-21 15:03 | 37.56655 | -122.24554 | 1949 ft | 141 kts | 289° |
| 2026-04-21 15:03 | 37.57102 | -122.25644 | 1703 ft | 141 kts | 291° |
| 2026-04-21 15:03 | 37.57579 | -122.26707 | 1463 ft | 137 kts | 294° |
| 2026-04-21 15:04 | 37.58051 | -122.27744 | 1402 ft | 136 kts | 292° |
| 2026-04-21 15:04 | 37.58485 | -122.28825 | 1303 ft | 142 kts | 289° |
| 2026-04-21 15:04 | 37.58904 | -122.29988 | 1068 ft | 146 kts | 291° |
| 2026-04-21 15:04 | 37.59357 | -122.31103 | 873 ft | 142 kts | 295° |
| 2026-04-21 15:05 | 37.59853 | -122.32200 | 672 ft | 145 kts | 297° |
| 2026-04-21 15:05 | 37.60821 | -122.34454 | 287 ft | 146 kts | 296° |
| 2026-04-21 15:05 | 37.61301 | -122.35593 | 117 ft | 148 kts | 296° |
| 2026-04-21 15:06 | 37.61767 | -122.36704 | 26 ft | 134 kts | 298° |
| 2026-04-21 15:06 | 37.62130 | -122.37569 | 21 ft | 92 kts | 298° |
| 2026-04-21 15:06 | 37.62357 | -122.38108 | 23 ft | 38 kts | 297° |
| 2026-04-21 15:06 | 37.62457 | -122.38348 | 21 ft | 19 kts | 297° |
| 2026-04-21 15:07 | 37.62497 | -122.38503 | 21 ft | 18 kts | 281° |
| 2026-04-21 15:07 | 37.62502 | -122.38661 | 21 ft | 18 kts | 268° |
| 2026-04-21 15:07 | 37.62492 | -122.38814 | 21 ft | 18 kts | 254° |
| 2026-04-21 15:07 | 37.62419 | -122.38899 | 22 ft | 14 kts | 209° |
| 2026-04-21 15:08 | 37.62357 | -122.38922 | 22 ft | 8 kts | 166° |
| 2026-04-21 15:08 | 37.62322 | -122.38878 | 21 ft | 7 kts | 119° |
| 2026-04-21 15:08 | 37.62300 | -122.38826 | 21 ft | 7 kts | 120° |
| 2026-04-21 15:08 | 37.62277 | -122.38773 | 22 ft | 7 kts | 117° |
| 2026-04-21 15:09 | 37.62255 | -122.38718 | 21 ft | 8 kts | 117° |
| 2026-04-21 15:09 | 37.62222 | -122.38640 | 21 ft | 12 kts | 118° |
| 2026-04-21 15:09 | 37.62176 | -122.38529 | 21 ft | 16 kts | 118° |
| 2026-04-21 15:09 | 37.62122 | -122.38401 | 21 ft | 17 kts | 117° |
| 2026-04-21 15:10 | 37.62069 | -122.38273 | 21 ft | 16 kts | 117° |
| 2026-04-21 15:10 | 37.62017 | -122.38151 | 22 ft | 15 kts | 117° |
| 2026-04-21 15:10 | 37.61985 | -122.38072 | 22 ft | 15 kts | 117° |
| 2026-04-21 15:10 | 37.61910 | -122.37997 | 21 ft | 14 kts | 180° |
| 2026-04-21 15:11 | 37.61789 | -122.37956 | 21 ft | 13 kts | 165° |
| 2026-04-21 15:11 | 37.61728 | -122.37948 | 21 ft | 13 kts | 181° |
| 2026-04-21 15:11 | 37.61619 | -122.37996 | 23 ft | 12 kts | 207° |
| 2026-04-21 15:11 | 37.61578 | -122.38041 | 23 ft | 12 kts | 249° |
| 2026-04-21 15:12 | 37.61595 | -122.38121 | 21 ft | 8 kts | 297° |
| 2026-04-21 15:12 | 37.61613 | -122.38168 | 21 ft | 3 kts | 294° |
| 2026-04-21 15:12 | 37.61625 | -122.38182 | 21 ft | 2 kts | 346° |
| 2026-04-21 15:12 | 37.61643 | -122.38178 | 21 ft | 3 kts | 11° |
| 2026-04-21 15:13 | 37.61659 | -122.38173 | 21 ft | 2 kts | 12° |
| 2026-04-21 15:13 | 37.61675 | -122.38168 | 22 ft | 2 kts | 13° |
| 2026-04-21 15:13 | 37.61678 | -122.38168 | 22 ft | 0 kts | 13° |
| 2026-04-21 15:16 | 37.61682 | -122.38167 | 21 ft | 0 kts | 2° |